createdAt,value
2022-09-02T00:00:30.816Z,10.82
2022-09-02T00:01:37.568Z,10.65
2022-09-02T00:02:39.424Z,10.10
2022-09-02T00:03:43.086Z,10.52
2022-09-02T00:04:45.143Z,10.70
2022-09-02T00:05:47.962Z,10.88
2022-09-02T00:06:51.628Z,10.65
2022-09-02T00:07:54.944Z,10.60
2022-09-02T00:08:57.018Z,10.88
2022-09-02T00:09:59.867Z,11.07
2022-09-02T00:11:03.556Z,11.15
2022-09-02T00:12:07.821Z,11.05
2022-09-02T00:13:11.914Z,10.95
2022-09-02T00:14:19.320Z,10.65
2022-09-02T00:15:20.939Z,10.27
2022-09-02T00:16:23.899Z,11.38
2022-09-02T00:17:25.545Z,10.88
2022-09-02T00:18:27.340Z,11.02
2022-09-02T00:19:34.075Z,10.27
2022-09-02T00:20:35.713Z,10.35
2022-09-02T00:21:37.958Z,10.30
2022-09-02T00:22:39.767Z,10.45
2022-09-02T00:23:43.546Z,10.98
2022-09-02T00:24:45.099Z,10.75
2022-09-02T00:25:46.843Z,10.38
2022-09-02T00:26:48.688Z,10.65
2022-09-02T00:27:50.645Z,10.52
2022-09-02T00:28:55.870Z,10.43
2022-09-02T00:29:58.264Z,10.35
2022-09-02T00:30:59.933Z,10.88
2022-09-02T00:32:01.849Z,10.40
2022-09-02T00:33:04.223Z,10.65
2022-09-02T00:34:06.265Z,10.63
2022-09-02T00:35:09.195Z,10.40
2022-09-02T00:36:11.116Z,10.90
2022-09-02T00:37:13.353Z,11.77
2022-09-02T00:38:15.321Z,11.23
2022-09-02T00:39:17.584Z,11.40
2022-09-02T00:40:19.535Z,10.73
2022-09-02T00:41:25.246Z,10.50
2022-09-02T00:42:27.002Z,11.10
2022-09-02T00:43:40.348Z,10.88
2022-09-02T00:44:42.089Z,11.13
2022-09-02T00:45:43.679Z,11.10
2022-09-02T00:46:45.979Z,10.90
2022-09-02T00:47:50.578Z,10.40
2022-09-02T00:49:15.580Z,11.18
2022-09-02T00:50:22.951Z,10.27
2022-09-02T00:51:28.236Z,11.27
2022-09-02T00:52:41.514Z,10.23
2022-09-02T00:53:46.561Z,11.93
2022-09-02T00:54:56.240Z,12.35
2022-09-02T00:55:59.451Z,10.98
2022-09-02T00:57:04.009Z,11.75
2022-09-02T00:58:09.996Z,11.75
2022-09-02T00:59:19.218Z,11.23
2022-09-02T01:00:24.719Z,11.65
2022-09-02T01:01:28.929Z,11.20
2022-09-02T01:02:31.767Z,10.80
2022-09-02T01:03:33.922Z,11.27
2022-09-02T01:04:35.923Z,11.40
2022-09-02T01:05:44.701Z,12.15
2022-09-02T01:06:46.404Z,11.18
2022-09-02T01:07:48.202Z,11.00
2022-09-02T01:08:55.007Z,10.73
2022-09-02T01:09:57.883Z,11.02
2022-09-02T01:11:00.864Z,10.50
2022-09-02T01:12:04.725Z,10.48
2022-09-02T01:13:15.612Z,11.52
2022-09-02T01:14:18.016Z,10.93
2022-09-02T01:15:19.641Z,11.48
2022-09-02T01:16:28.395Z,10.48
2022-09-02T01:17:30.247Z,11.48
2022-09-02T01:18:32.187Z,12.15
2022-09-02T01:19:45.984Z,10.90
2022-09-02T01:20:48.008Z,11.35
2022-09-02T01:21:54.555Z,11.07
2022-09-02T01:22:58.208Z,11.50
2022-09-02T01:24:00.532Z,11.13
2022-09-02T01:25:07.803Z,11.88
2022-09-02T01:26:09.672Z,11.52
2022-09-02T01:27:15.958Z,11.07
2022-09-02T01:28:19.079Z,11.02
2022-09-02T01:29:20.659Z,10.88
2022-09-02T01:30:25.615Z,10.60
2022-09-02T01:31:27.452Z,10.45
2022-09-02T01:32:30.404Z,9.95
2022-09-02T01:33:32.011Z,9.75
2022-09-02T01:34:33.732Z,9.75
2022-09-02T01:35:35.576Z,9.23
2022-09-02T01:36:39.340Z,9.43
2022-09-02T01:37:42.198Z,8.88
2022-09-02T01:38:57.308Z,9.63
2022-09-02T01:39:59.645Z,9.32
2022-09-02T01:41:01.519Z,7.78
2022-09-02T01:42:03.372Z,7.32
2022-09-02T01:43:17.597Z,8.45
2022-09-02T01:44:19.244Z,8.35
2022-09-02T01:45:21.074Z,7.60
2022-09-02T01:46:23.677Z,8.45
2022-09-02T01:47:27.304Z,7.28
2022-09-02T01:48:29.095Z,7.40
2022-09-02T01:49:30.667Z,7.47
2022-09-02T01:50:42.585Z,7.85
2022-09-02T01:51:46.774Z,7.55
2022-09-02T01:52:48.378Z,6.93
2022-09-02T01:53:50.181Z,6.43
2022-09-02T01:54:51.838Z,6.20
2022-09-02T01:55:53.601Z,6.22
2022-09-02T01:56:55.231Z,6.03
2022-09-02T01:57:57.434Z,6.15
2022-09-02T01:58:59.082Z,6.85
2022-09-02T02:00:01.843Z,6.45
2022-09-02T02:01:04.770Z,6.32
2022-09-02T02:02:07.496Z,5.55
2022-09-02T02:03:09.421Z,5.95
2022-09-02T02:04:13.593Z,5.35
2022-09-02T02:05:15.953Z,5.53
2022-09-02T02:06:18.077Z,5.22
2022-09-02T02:07:20.563Z,5.20
2022-09-02T02:08:23.098Z,4.45
2022-09-02T02:09:24.944Z,4.57
2022-09-02T02:10:27.064Z,4.60
2022-09-02T02:11:28.664Z,4.45
2022-09-02T02:12:30.305Z,4.28
2022-09-02T02:13:32.692Z,4.32
2022-09-02T02:14:34.972Z,4.00
2022-09-02T02:15:41.577Z,4.35
2022-09-02T02:16:43.272Z,4.18
2022-09-02T02:17:45.222Z,3.83
2022-09-02T02:18:46.765Z,3.88
2022-09-02T02:19:48.406Z,3.75
2022-09-02T02:20:50.142Z,4.20
2022-09-02T02:21:52.017Z,3.80
2022-09-02T02:22:54.026Z,3.53
2022-09-02T02:23:55.672Z,3.60
2022-09-02T02:24:57.820Z,3.50
2022-09-02T02:25:59.377Z,3.63
2022-09-02T02:27:01.103Z,3.75
2022-09-02T02:28:03.587Z,3.28
2022-09-02T02:29:07.191Z,3.40
2022-09-02T02:30:10.534Z,3.70
2022-09-02T02:31:12.254Z,3.53
2022-09-02T02:32:14.545Z,3.67
2022-09-02T02:33:16.140Z,3.70
2022-09-02T02:34:17.986Z,3.50
2022-09-02T02:35:20.847Z,3.63
2022-09-02T02:36:22.695Z,3.53
2022-09-02T02:37:25.604Z,3.58
2022-09-02T02:38:27.481Z,3.38
2022-09-02T02:39:29.155Z,3.80
2022-09-02T02:40:31.675Z,3.55
2022-09-02T02:41:34.110Z,3.30
2022-09-02T02:42:36.038Z,3.85
2022-09-02T02:43:37.874Z,3.60
2022-09-02T02:44:40.260Z,3.67
2022-09-02T02:45:41.846Z,4.13
2022-09-02T02:46:43.878Z,4.10
2022-09-02T02:47:47.181Z,3.90
2022-09-02T02:48:48.979Z,3.97
2022-09-02T02:49:50.637Z,4.20
2022-09-02T02:50:52.245Z,4.70
2022-09-02T02:51:54.510Z,4.20
2022-09-02T02:52:56.577Z,4.80
2022-09-02T02:53:59.788Z,4.70
2022-09-02T02:55:01.525Z,4.43
2022-09-02T02:56:05.524Z,4.22
2022-09-02T02:57:08.712Z,4.15
2022-09-02T02:58:10.391Z,4.70
2022-09-02T02:59:17.432Z,4.47
2022-09-02T03:00:22.991Z,3.90
2022-09-02T03:01:24.674Z,4.70
2022-09-02T03:02:26.440Z,4.40
2022-09-02T03:03:28.542Z,4.68
2022-09-02T03:04:30.336Z,4.70
2022-09-02T03:05:35.777Z,4.65
2022-09-02T03:06:37.368Z,4.47
2022-09-02T03:07:39.528Z,5.00
2022-09-02T03:08:41.943Z,4.50
2022-09-02T03:09:43.823Z,5.00
2022-09-02T03:10:45.390Z,4.80
2022-09-02T03:11:48.070Z,4.85
2022-09-02T03:12:50.936Z,4.80
2022-09-02T03:13:52.680Z,4.35
2022-09-02T03:14:54.471Z,4.63
2022-09-02T03:15:56.125Z,4.90
2022-09-02T03:16:57.852Z,4.50
2022-09-02T03:17:59.534Z,4.40
2022-09-02T03:19:01.185Z,4.85
2022-09-02T03:20:03.722Z,4.80
2022-09-02T03:21:09.066Z,4.40
2022-09-02T03:22:11.061Z,4.28
2022-09-02T03:23:13.243Z,4.70
2022-09-02T03:24:14.822Z,4.30
2022-09-02T03:25:20.735Z,3.97
2022-09-02T03:26:24.321Z,4.40
2022-09-02T03:27:25.985Z,4.63
2022-09-02T03:28:28.002Z,4.20
2022-09-02T03:29:29.734Z,4.55
2022-09-02T03:30:33.490Z,4.90
2022-09-02T03:31:35.173Z,4.57
2022-09-02T03:32:37.547Z,4.70
2022-09-02T03:33:39.329Z,4.97
2022-09-02T03:34:41.842Z,4.75
2022-09-02T03:35:45.298Z,4.20
2022-09-02T03:36:47.392Z,4.55
2022-09-02T03:37:51.132Z,4.40
2022-09-02T03:38:53.462Z,4.80
2022-09-02T03:39:55.044Z,4.30
2022-09-02T03:40:56.632Z,4.25
2022-09-02T03:41:58.211Z,3.83
2022-09-02T03:43:00.699Z,4.95
2022-09-02T03:44:02.607Z,4.65
2022-09-02T03:45:07.017Z,4.53
2022-09-02T03:46:10.165Z,4.85
2022-09-02T03:47:14.025Z,4.57
2022-09-02T03:48:15.685Z,4.63
2022-09-02T03:49:17.325Z,4.80
2022-09-02T03:50:20.235Z,4.50
2022-09-02T03:51:23.055Z,5.07
2022-09-02T03:52:25.178Z,5.18
2022-09-02T03:53:26.899Z,5.10
2022-09-02T03:54:28.658Z,4.85
2022-09-02T03:55:31.866Z,5.07
2022-09-02T03:56:34.271Z,5.15
2022-09-02T03:57:36.805Z,5.00
2022-09-02T03:58:38.857Z,5.32
2022-09-02T03:59:41.780Z,4.70
2022-09-02T04:00:44.694Z,5.30
2022-09-02T04:01:47.061Z,5.10
2022-09-02T04:02:50.102Z,5.70
2022-09-02T04:03:53.686Z,5.32
2022-09-02T04:04:55.356Z,5.10
2022-09-02T04:05:57.483Z,5.60
2022-09-02T04:07:00.286Z,5.35
2022-09-02T04:08:02.410Z,5.60
2022-09-02T04:09:05.332Z,5.40
2022-09-02T04:10:09.020Z,5.60
2022-09-02T04:11:17.714Z,5.45
2022-09-02T04:12:19.278Z,5.75
2022-09-02T04:13:20.865Z,5.47
2022-09-02T04:14:22.727Z,5.60
2022-09-02T04:15:25.227Z,5.88
2022-09-02T04:16:29.710Z,6.40
2022-09-02T04:17:31.567Z,5.32
2022-09-02T04:18:33.214Z,5.63
2022-09-02T04:19:34.822Z,5.90
2022-09-02T04:20:39.042Z,5.63
2022-09-02T04:21:41.882Z,5.40
2022-09-02T04:22:43.656Z,5.85
2022-09-02T04:23:45.880Z,6.40
2022-09-02T04:24:47.454Z,5.93
2022-09-02T04:25:49.027Z,5.95
2022-09-02T04:26:50.965Z,6.20
2022-09-02T04:27:52.539Z,6.10
2022-09-02T04:28:54.254Z,5.80
2022-09-02T04:29:56.388Z,5.90
2022-09-02T04:30:58.412Z,6.03
2022-09-02T04:32:00.110Z,6.07
2022-09-02T04:33:01.748Z,6.10
2022-09-02T04:34:04.073Z,6.22
2022-09-02T04:35:05.998Z,6.13
2022-09-02T04:36:10.750Z,6.25
2022-09-02T04:37:16.451Z,5.53
2022-09-02T04:38:18.435Z,6.40
2022-09-02T04:39:20.499Z,6.65
2022-09-02T04:40:22.186Z,5.88
2022-09-02T04:41:28.021Z,5.82
2022-09-02T04:42:29.611Z,6.43
2022-09-02T04:43:31.156Z,6.30
2022-09-02T04:44:33.272Z,6.53
2022-09-02T04:45:35.147Z,6.25
2022-09-02T04:46:36.833Z,6.43
2022-09-02T04:47:39.391Z,7.00
2022-09-02T04:48:41.183Z,6.75
2022-09-02T04:49:43.215Z,6.57
2022-09-02T04:50:45.880Z,6.22
2022-09-02T04:51:47.637Z,6.88
2022-09-02T04:52:49.198Z,7.00
2022-09-02T04:53:53.296Z,7.78
2022-09-02T04:54:54.944Z,7.00
2022-09-02T04:55:58.179Z,7.18
2022-09-02T04:56:59.883Z,7.43
2022-09-02T04:58:01.811Z,6.95
2022-09-02T04:59:04.002Z,7.10
2022-09-02T05:00:07.628Z,7.85
2022-09-02T05:01:11.322Z,6.90
2022-09-02T05:02:13.106Z,7.38
2022-09-02T05:03:14.776Z,7.80
2022-09-02T05:04:16.369Z,9.50
2022-09-02T05:05:18.097Z,8.52
2022-09-02T05:06:23.546Z,6.90
2022-09-02T05:07:25.136Z,7.80
2022-09-02T05:08:26.747Z,7.60
2022-09-02T05:09:32.396Z,7.35
2022-09-02T05:10:34.008Z,7.53
2022-09-02T05:11:35.824Z,8.55
2022-09-02T05:12:37.388Z,7.80
2022-09-02T05:13:40.313Z,7.07
2022-09-02T05:14:41.870Z,7.55
2022-09-02T05:15:44.963Z,7.13
2022-09-02T05:16:46.812Z,7.35
2022-09-02T05:17:48.684Z,7.45
2022-09-02T05:18:51.875Z,7.47
2022-09-02T05:19:54.025Z,7.47
2022-09-02T05:20:55.764Z,7.35
2022-09-02T05:21:59.210Z,7.18
2022-09-02T05:23:01.034Z,6.90
2022-09-02T05:24:02.789Z,8.02
2022-09-02T05:25:07.575Z,7.35
2022-09-02T05:26:12.796Z,7.43
2022-09-02T05:27:16.393Z,7.15
2022-09-02T05:28:18.139Z,8.70
2022-09-02T05:29:20.623Z,7.82
2022-09-02T05:30:22.160Z,7.20
2022-09-02T05:31:23.706Z,7.85
2022-09-02T05:32:27.474Z,7.88
2022-09-02T05:33:29.074Z,7.63
2022-09-02T05:34:30.972Z,7.10
2022-09-02T05:35:33.349Z,7.60
2022-09-02T05:36:37.871Z,7.43
2022-09-02T05:37:39.415Z,6.90
2022-09-02T05:38:42.087Z,6.88
2022-09-02T05:39:43.722Z,7.43
2022-09-02T05:40:45.348Z,7.72
2022-09-02T05:41:47.370Z,7.10
2022-09-02T05:42:48.947Z,6.95
2022-09-02T05:44:01.346Z,6.60
2022-09-02T05:45:06.857Z,6.22
2022-09-02T05:46:11.145Z,6.93
2022-09-02T05:47:13.441Z,6.93
2022-09-02T05:48:33.644Z,6.53
2022-09-02T05:49:35.199Z,6.57
2022-09-02T05:50:37.625Z,6.82
2022-09-02T05:51:53.053Z,6.95
2022-09-02T05:52:54.679Z,6.97
2022-09-02T05:53:58.297Z,7.05
2022-09-02T05:55:00.614Z,6.28
2022-09-02T05:56:05.182Z,6.80
2022-09-02T05:57:11.216Z,6.55
2022-09-02T05:58:12.830Z,6.40
2022-09-02T05:59:15.067Z,6.07
2022-09-02T06:00:18.272Z,6.90
2022-09-02T06:01:20.228Z,6.65
2022-09-02T06:02:24.173Z,6.75
2022-09-02T06:03:25.824Z,6.65
2022-09-02T06:04:27.470Z,6.30
2022-09-02T06:05:29.652Z,6.50
2022-09-02T06:06:32.242Z,6.40
2022-09-02T06:07:36.685Z,6.30
2022-09-02T06:08:39.231Z,6.90
2022-09-02T06:09:41.663Z,6.65
2022-09-02T06:10:43.410Z,6.53
2022-09-02T06:11:46.310Z,6.13
2022-09-02T06:12:48.793Z,6.65
2022-09-02T06:13:52.592Z,6.45
2022-09-02T06:14:54.185Z,6.22
2022-09-02T06:15:57.053Z,6.63
2022-09-02T06:16:59.468Z,6.30
2022-09-02T06:18:01.146Z,6.30
2022-09-02T06:19:05.375Z,5.70
2022-09-02T06:20:08.562Z,6.38
2022-09-02T06:21:12.435Z,6.43
2022-09-02T06:22:14.006Z,6.85
2022-09-02T06:23:17.115Z,6.40
2022-09-02T06:24:18.738Z,6.13
2022-09-02T06:25:21.005Z,6.28
2022-09-02T06:26:22.901Z,6.55
2022-09-02T06:27:24.575Z,6.47
2022-09-02T06:28:26.258Z,6.50
2022-09-02T06:29:27.997Z,6.40
2022-09-02T06:30:29.732Z,6.13
2022-09-02T06:31:34.370Z,7.53
2022-09-02T06:32:36.456Z,6.55
2022-09-02T06:33:38.249Z,7.10
2022-09-02T06:34:39.883Z,7.32
2022-09-02T06:35:44.709Z,7.55
2022-09-02T06:36:48.942Z,6.68
2022-09-02T06:37:50.741Z,7.30
2022-09-02T06:38:54.100Z,7.03
2022-09-02T06:39:55.881Z,6.70
2022-09-02T06:40:58.911Z,7.57
2022-09-02T06:42:01.042Z,7.45
2022-09-02T06:43:02.888Z,7.22
2022-09-02T06:44:07.247Z,8.05
2022-09-02T06:45:09.331Z,8.23
2022-09-02T06:46:21.306Z,8.02
2022-09-02T06:47:22.983Z,7.30
2022-09-02T06:48:24.533Z,7.57
2022-09-02T06:49:27.228Z,6.80
2022-09-02T06:50:28.834Z,7.03
2022-09-02T06:51:33.426Z,6.60
2022-09-02T06:52:35.087Z,6.82
2022-09-02T06:53:36.632Z,6.93
2022-09-02T06:54:38.188Z,6.75
2022-09-02T06:55:43.298Z,7.28
2022-09-02T06:56:49.183Z,7.15
2022-09-02T06:57:51.089Z,7.60
2022-09-02T06:58:53.700Z,7.13
2022-09-02T07:00:01.875Z,7.22
2022-09-02T07:01:04.428Z,6.82
2022-09-02T07:02:06.202Z,7.30
2022-09-02T07:03:27.498Z,7.65
2022-09-02T07:04:54.286Z,7.68
2022-09-02T07:06:09.383Z,7.35
2022-09-02T07:07:12.410Z,6.93
2022-09-02T07:08:13.999Z,7.60
2022-09-02T07:09:18.974Z,7.32
2022-09-02T07:10:20.535Z,8.05
2022-09-02T07:11:24.066Z,7.85
2022-09-02T07:12:27.363Z,7.78
2022-09-02T07:13:28.976Z,8.15
2022-09-02T07:14:30.586Z,9.00
2022-09-02T07:15:32.630Z,8.45
2022-09-02T07:16:37.888Z,7.57
2022-09-02T07:17:39.550Z,7.80
2022-09-02T07:18:41.549Z,7.18
2022-09-02T07:19:44.842Z,8.23
2022-09-02T07:20:48.105Z,7.95
2022-09-02T07:21:49.883Z,7.22
2022-09-02T07:23:59.675Z,8.13
2022-09-02T07:25:01.338Z,7.32
2022-09-02T07:26:03.316Z,7.03
2022-09-02T07:27:05.970Z,7.00
2022-09-02T07:28:08.718Z,6.75
2022-09-02T07:29:11.467Z,7.15
2022-09-02T07:30:14.152Z,6.75
2022-09-02T07:31:17.736Z,6.93
2022-09-02T07:32:19.339Z,6.80
2022-09-02T07:33:22.748Z,6.90
2022-09-02T07:34:25.111Z,7.53
2022-09-02T07:35:27.469Z,7.85
2022-09-02T07:36:29.139Z,8.50
2022-09-02T07:37:30.718Z,7.20
2022-09-02T07:38:33.460Z,8.05
2022-09-02T07:39:35.023Z,7.40
2022-09-02T07:40:38.323Z,8.30
2022-09-02T07:41:41.196Z,8.10
2022-09-02T07:42:44.017Z,7.50
2022-09-02T07:43:49.622Z,6.72
2022-09-02T07:44:53.188Z,7.18
2022-09-02T07:45:55.963Z,6.82
2022-09-02T07:46:57.564Z,7.88
2022-09-02T07:47:59.773Z,6.90
2022-09-02T07:49:09.052Z,7.50
2022-09-02T07:50:21.459Z,7.75
2022-09-02T07:51:24.011Z,6.80
2022-09-02T07:52:30.797Z,6.55
2022-09-02T07:53:32.963Z,6.70
2022-09-02T07:54:34.987Z,7.10
2022-09-02T07:55:37.086Z,6.85
2022-09-02T07:56:38.928Z,6.57
2022-09-02T07:57:40.496Z,6.63
2022-09-02T07:58:44.033Z,7.18
2022-09-02T07:59:47.840Z,6.97
2022-09-02T08:00:50.493Z,7.20
2022-09-02T08:01:53.431Z,7.18
2022-09-02T08:02:55.745Z,7.10
2022-09-02T08:03:59.466Z,6.75
2022-09-02T08:05:04.978Z,6.70
2022-09-02T08:06:08.520Z,6.85
2022-09-02T08:07:11.187Z,6.28
2022-09-02T08:08:14.107Z,5.97
2022-09-02T08:09:15.711Z,6.63
2022-09-02T08:10:17.742Z,6.55
2022-09-02T08:11:19.470Z,6.28
2022-09-02T08:12:22.405Z,6.20
2022-09-02T08:13:27.066Z,6.50
2022-09-02T08:14:29.667Z,6.15
2022-09-02T08:15:32.238Z,6.05
2022-09-02T08:16:34.367Z,6.15
2022-09-02T08:17:36.479Z,5.60
2022-09-02T08:18:38.307Z,6.00
2022-09-02T08:19:39.943Z,6.13
2022-09-02T08:20:41.555Z,6.15
2022-09-02T08:21:43.104Z,6.35
2022-09-02T08:22:48.866Z,5.78
2022-09-02T08:23:57.947Z,5.63
2022-09-02T08:24:59.850Z,6.28
2022-09-02T08:26:02.461Z,6.10
2022-09-02T08:27:04.052Z,5.50
2022-09-02T08:28:05.592Z,5.57
2022-09-02T08:29:08.692Z,6.25
2022-09-02T08:30:11.294Z,5.90
2022-09-02T08:31:12.974Z,6.10
2022-09-02T08:32:14.606Z,5.50
2022-09-02T08:33:16.302Z,5.80
2022-09-02T08:34:18.623Z,5.93
2022-09-02T08:35:21.014Z,5.93
2022-09-02T08:36:22.639Z,6.10
2022-09-02T08:37:24.212Z,5.80
2022-09-02T08:38:25.835Z,5.88
2022-09-02T08:39:27.419Z,5.75
2022-09-02T08:40:38.603Z,6.07
2022-09-02T08:42:14.671Z,5.97
2022-09-02T08:43:40.240Z,5.70
2022-09-02T08:44:42.216Z,5.78
2022-09-02T08:45:45.649Z,5.85
2022-09-02T08:46:49.101Z,5.82
2022-09-02T08:47:59.172Z,5.20
2022-09-02T08:49:08.193Z,5.68
2022-09-02T08:50:14.706Z,6.18
2022-09-02T08:51:25.180Z,6.22
2022-09-02T08:52:54.015Z,5.97
2022-09-02T08:54:08.619Z,6.07
2022-09-02T08:55:25.530Z,7.00
2022-09-02T08:56:28.238Z,7.00
2022-09-02T08:57:31.681Z,6.68
2022-09-02T08:58:39.282Z,6.25
2022-09-02T09:00:58.550Z,6.55
2022-09-02T09:02:09.530Z,6.50
2022-09-02T09:03:38.404Z,6.30
2022-09-02T09:04:59.575Z,6.60
2022-09-02T09:06:09.639Z,6.40
2022-09-02T09:07:26.935Z,6.03
2022-09-02T09:09:12.261Z,7.50
2022-09-02T09:10:20.091Z,7.30
2022-09-02T09:11:36.399Z,7.32
2022-09-02T09:12:54.267Z,7.53
2022-09-02T09:13:59.013Z,7.70
2022-09-02T09:15:14.557Z,7.45
2022-09-02T09:16:35.131Z,7.18
2022-09-02T09:17:47.703Z,7.55
2022-09-02T09:18:55.838Z,7.22
2022-09-02T09:20:05.626Z,7.45
2022-09-02T09:21:08.278Z,7.32
2022-09-02T09:22:20.626Z,7.70
2022-09-02T09:23:34.941Z,7.53
2022-09-02T09:24:43.160Z,9.18
2022-09-02T09:25:49.430Z,8.55
2022-09-02T09:26:53.498Z,7.47
2022-09-02T09:27:58.524Z,7.05
2022-09-02T09:29:04.621Z,7.25
2022-09-02T09:30:14.474Z,7.80
2022-09-02T09:31:29.690Z,8.80
2022-09-02T09:32:39.622Z,9.20
2022-09-02T09:34:02.150Z,9.40
2022-09-02T09:35:14.600Z,9.07
2022-09-02T09:36:17.269Z,9.27
2022-09-02T09:37:40.120Z,8.88
2022-09-02T09:38:41.712Z,8.93
2022-09-02T09:39:43.277Z,8.38
2022-09-02T09:40:44.979Z,8.80
2022-09-02T09:41:48.499Z,8.15
2022-09-02T09:43:14.622Z,7.03
2022-09-02T09:44:39.663Z,7.50
2022-09-02T09:45:42.318Z,7.18
2022-09-02T09:46:43.889Z,7.10
2022-09-02T09:47:46.043Z,7.93
2022-09-02T09:48:54.088Z,9.13
2022-09-02T09:50:17.059Z,8.15
2022-09-02T09:51:18.878Z,8.07
2022-09-02T09:52:25.744Z,8.20
2022-09-02T09:53:29.983Z,8.75
2022-09-02T09:54:31.968Z,9.52
2022-09-02T09:55:36.870Z,9.32
2022-09-02T09:56:41.095Z,9.65
2022-09-02T09:57:45.734Z,9.27
2022-09-02T09:58:49.115Z,9.45
2022-09-02T09:59:55.955Z,8.82
2022-09-02T10:00:59.002Z,8.82
2022-09-02T10:02:00.762Z,10.27
2022-09-02T10:03:06.518Z,10.48
2022-09-02T10:04:41.710Z,10.07
2022-09-02T10:05:44.727Z,9.15
2022-09-02T10:06:48.415Z,8.88
2022-09-02T10:08:02.922Z,9.00
2022-09-02T10:09:07.535Z,7.57
2022-09-02T10:10:21.490Z,8.05
2022-09-02T10:11:29.207Z,8.52
2022-09-02T10:12:33.708Z,8.43
2022-09-02T10:13:37.823Z,8.10
2022-09-02T10:14:43.780Z,8.70
2022-09-02T10:16:05.110Z,8.10
2022-09-02T10:17:24.527Z,8.18
2022-09-02T10:18:44.754Z,8.38
2022-09-02T10:20:04.494Z,9.55
2022-09-02T10:21:28.381Z,8.95
2022-09-02T10:22:58.931Z,9.32
2022-09-02T10:24:18.767Z,8.68
2022-09-02T10:25:38.535Z,8.93
2022-09-02T10:26:54.186Z,10.50
2022-09-02T10:28:17.698Z,12.38
2022-09-02T10:29:39.659Z,11.27
2022-09-02T10:31:27.680Z,10.20
2022-09-02T10:32:46.679Z,10.80
2022-09-02T10:34:20.459Z,10.65
2022-09-02T10:35:48.011Z,10.38
2022-09-02T10:37:20.462Z,9.02
2022-09-02T10:38:29.407Z,9.68
2022-09-02T10:39:57.702Z,9.85
2022-09-02T10:41:17.251Z,9.38
2022-09-02T10:42:45.748Z,10.25
2022-09-02T10:44:06.482Z,10.70
2022-09-02T10:45:10.786Z,10.88
2022-09-02T10:46:18.195Z,11.20
2022-09-02T10:47:36.481Z,10.35
2022-09-02T10:48:56.835Z,11.02
2022-09-02T10:50:16.298Z,12.65
2022-09-02T10:51:41.335Z,11.30
2022-09-02T10:53:05.956Z,10.57
2022-09-02T10:54:23.584Z,9.77
2022-09-02T10:55:44.912Z,9.40
2022-09-02T10:57:01.670Z,8.95
2022-09-02T10:58:06.332Z,11.65
2022-09-02T10:59:24.418Z,10.98
2022-09-02T11:00:28.339Z,11.95
2022-09-02T11:01:44.951Z,11.40
2022-09-02T11:02:49.551Z,11.80
2022-09-02T11:04:10.001Z,12.25
2022-09-02T11:05:28.491Z,12.73
2022-09-02T11:06:45.992Z,12.23
2022-09-02T11:08:10.387Z,11.70
2022-09-02T11:09:47.230Z,12.65
2022-09-02T11:11:07.074Z,11.57
2022-09-02T11:12:26.999Z,10.40
2022-09-02T11:13:40.578Z,11.90
2022-09-02T11:14:48.623Z,12.02
2022-09-02T11:15:53.215Z,13.27
2022-09-02T11:16:58.128Z,13.55
2022-09-02T11:18:03.600Z,13.02
2022-09-02T11:19:05.514Z,13.18
2022-09-02T11:20:16.073Z,14.25
2022-09-02T11:22:05.720Z,13.38
2022-09-02T11:23:46.754Z,11.95
2022-09-02T11:24:56.031Z,10.48
2022-09-02T11:26:02.476Z,10.48
2022-09-02T11:27:39.012Z,9.52
2022-09-02T11:29:16.548Z,9.18
2022-09-02T11:30:23.777Z,9.95
2022-09-02T11:31:41.382Z,9.07
2022-09-02T11:32:59.558Z,11.38
2022-09-02T11:34:19.586Z,14.35
2022-09-02T11:35:28.903Z,12.65
2022-09-02T11:36:41.323Z,12.43
2022-09-02T11:37:57.905Z,12.20
2022-09-02T11:39:05.723Z,10.80
2022-09-02T11:40:36.446Z,12.93
2022-09-02T11:41:57.349Z,12.23
2022-09-02T11:43:07.845Z,13.02
2022-09-02T11:44:15.902Z,13.00
2022-09-02T11:45:33.605Z,12.27
2022-09-02T11:46:54.995Z,13.02
2022-09-02T11:48:41.980Z,14.38
2022-09-02T11:50:02.967Z,14.70
2022-09-02T11:51:22.454Z,14.80
2022-09-02T11:52:34.311Z,14.45
2022-09-02T11:53:40.259Z,14.88
2022-09-02T11:54:47.113Z,14.27
2022-09-02T11:56:01.879Z,14.10
2022-09-02T11:57:05.573Z,13.75
2022-09-02T11:58:07.272Z,12.65
2022-09-02T11:59:19.709Z,12.50
2022-09-02T12:00:49.471Z,11.38
2022-09-02T12:01:55.332Z,11.00
2022-09-02T12:03:16.687Z,10.82
2022-09-02T12:05:51.591Z,11.13
2022-09-02T12:07:12.918Z,10.93
2022-09-02T12:08:32.791Z,13.38
2022-09-02T12:09:56.754Z,12.13
2022-09-02T12:11:02.113Z,12.75
2022-09-02T12:12:03.900Z,12.68
2022-09-02T12:13:09.608Z,12.15
2022-09-02T12:14:31.863Z,11.80
2022-09-02T12:15:38.614Z,12.13
2022-09-02T12:16:45.501Z,10.68
2022-09-02T12:17:49.958Z,11.32
2022-09-02T12:18:54.678Z,11.38
2022-09-02T12:19:56.275Z,11.75
2022-09-02T12:20:59.553Z,11.52
2022-09-02T12:22:26.358Z,12.18
2022-09-02T12:23:53.215Z,13.63
2022-09-02T12:24:57.074Z,12.77
2022-09-02T12:26:02.628Z,13.77
2022-09-02T12:27:09.546Z,14.35
2022-09-02T12:28:26.989Z,14.68
2022-09-02T12:29:28.875Z,12.65
2022-09-02T12:31:01.628Z,12.45
2022-09-02T12:32:03.391Z,11.82
2022-09-02T12:33:13.528Z,12.18
2022-09-02T12:34:21.012Z,13.63
2022-09-02T12:35:40.880Z,13.77
2022-09-02T12:37:12.161Z,12.73
2022-09-02T12:38:14.247Z,12.60
2022-09-02T12:39:25.056Z,12.77
2022-09-02T12:40:32.557Z,13.20
2022-09-02T12:41:40.708Z,12.00
2022-09-02T12:42:43.049Z,12.90
2022-09-02T12:43:57.870Z,15.63
2022-09-02T12:45:26.725Z,14.88
2022-09-02T12:46:42.526Z,17.67
2022-09-02T12:48:13.295Z,17.00
2022-09-02T12:49:39.751Z,18.05
2022-09-02T12:50:44.017Z,16.13
2022-09-02T12:51:53.296Z,15.65
2022-09-02T12:53:15.206Z,15.65
2022-09-02T12:54:49.217Z,14.55
2022-09-02T12:55:55.858Z,14.75
2022-09-02T12:56:57.640Z,14.73
2022-09-02T12:58:26.753Z,15.10
2022-09-02T12:59:34.235Z,16.40
2022-09-02T13:01:01.691Z,15.95
2022-09-02T13:02:16.968Z,15.70
2022-09-02T13:03:48.931Z,16.55
2022-09-02T13:05:16.138Z,15.27
2022-09-02T13:06:24.857Z,14.88
2022-09-02T13:07:48.094Z,15.90
2022-09-02T13:09:31.548Z,16.13
2022-09-02T13:10:57.041Z,15.57
2022-09-02T13:12:04.356Z,16.23
2022-09-02T13:13:37.246Z,16.17
2022-09-02T13:15:18.192Z,16.58
2022-09-02T13:16:33.757Z,16.95
2022-09-02T13:17:45.207Z,16.65
2022-09-02T13:19:06.380Z,16.58
2022-09-02T13:20:45.631Z,16.23
2022-09-02T13:22:05.104Z,15.60
2022-09-02T13:23:15.764Z,16.77
2022-09-02T13:24:40.741Z,17.48
2022-09-02T13:25:45.373Z,17.65
2022-09-02T13:27:11.672Z,16.52
2022-09-02T13:28:45.634Z,15.77
2022-09-02T13:30:06.325Z,16.63
2022-09-02T13:31:10.548Z,16.92
2022-09-02T13:32:22.148Z,16.55
2022-09-02T13:33:23.808Z,16.98
2022-09-02T13:34:25.511Z,16.70
2022-09-02T13:35:28.616Z,18.15
2022-09-02T13:36:35.905Z,18.20
2022-09-02T13:37:45.453Z,18.75
2022-09-02T13:38:47.304Z,17.00
2022-09-02T13:39:48.928Z,17.42
2022-09-02T13:40:50.814Z,17.98
2022-09-02T13:41:53.112Z,17.08
2022-09-02T13:43:01.447Z,17.73
2022-09-02T13:44:10.754Z,17.63
2022-09-02T13:45:18.747Z,18.23
2022-09-02T13:46:20.469Z,17.83
2022-09-02T13:47:22.128Z,17.67
2022-09-02T13:48:27.282Z,17.88
2022-09-02T13:49:41.590Z,18.88
2022-09-02T13:50:46.251Z,18.75
2022-09-02T13:51:51.365Z,17.75
2022-09-02T13:54:31.838Z,18.92
2022-09-02T13:55:34.818Z,19.30
2022-09-02T13:56:36.566Z,18.67
2022-09-02T13:57:38.758Z,18.92
2022-09-02T13:58:46.016Z,18.33
2022-09-02T13:59:50.460Z,18.10
2022-09-02T14:00:52.359Z,19.33
2022-09-02T14:01:54.305Z,20.85
2022-09-02T14:03:05.805Z,20.55
2022-09-02T14:04:12.699Z,20.23
2022-09-02T14:05:20.190Z,19.23
2022-09-02T14:06:29.120Z,21.90
2022-09-02T14:07:40.274Z,20.73
2022-09-02T14:08:42.086Z,21.10
2022-09-02T14:09:44.951Z,20.35
2022-09-02T14:10:48.347Z,21.88
2022-09-02T14:11:50.740Z,23.77
2022-09-02T14:12:53.358Z,24.00
2022-09-02T14:13:56.296Z,24.52
2022-09-02T14:14:58.695Z,24.70
2022-09-02T14:16:26.555Z,25.25
2022-09-02T14:17:28.244Z,24.80
2022-09-02T14:18:29.837Z,23.35
2022-09-02T14:19:31.442Z,24.48
2022-09-02T14:20:33.164Z,24.20
2022-09-02T14:21:37.155Z,23.20
2022-09-02T14:22:40.068Z,24.60
2022-09-02T14:23:49.889Z,25.15
2022-09-02T14:24:51.643Z,24.17
2022-09-02T14:25:56.564Z,25.30
2022-09-02T14:27:00.056Z,24.60
2022-09-02T14:28:08.445Z,23.60
2022-09-02T14:29:15.422Z,22.92
2022-09-02T14:30:35.771Z,23.33
2022-09-02T14:31:37.983Z,23.70
2022-09-02T14:32:39.540Z,20.98
2022-09-02T14:33:41.063Z,22.73
2022-09-02T14:34:47.502Z,23.33
2022-09-02T14:36:04.479Z,20.70
2022-09-02T14:37:24.652Z,22.17
2022-09-02T14:38:28.895Z,24.60
2022-09-02T14:39:30.592Z,23.60
2022-09-02T14:40:36.247Z,22.90
2022-09-02T14:41:45.992Z,21.95
2022-09-02T14:42:56.623Z,22.08
2022-09-02T14:44:08.346Z,22.20